Time;durP1;ratioP1;P1;durP2;ratioP2;P2;SDS_P1;SDS_P2;PMS_P1;PMS_P2;Temp;Humidity;BMP_temperature;BMP_pressure;BME280_temperature;BME280_humidity;BME280_pressure;Samples;Min_cycle;Max_cycle;Signal;HPM_P1;HPM_P2
2021/10/08 00:00:33;;;;;;;7.70;3.80;;;;;;;-149.78;100.00;50258.28;4841537;29;20118;-70
2021/10/08 00:02:59;;;;;;;10.15;4.55;;;;;;;-149.78;100.00;50244.59;4841712;29;20049;-71
2021/10/08 00:05:24;;;;;;;11.27;4.43;;;;;;;-149.78;100.00;50230.88;4824211;29;20053;-71
2021/10/08 00:07:50;;;;;;;9.55;3.83;;;;;;;-149.78;100.00;50268.03;4838276;29;20052;-70
2021/10/08 00:10:16;;;;;;;7.22;3.70;;;;;;;-149.78;100.00;50264.13;4839049;29;20375;-71
2021/10/08 00:12:41;;;;;;;11.75;4.32;;;;;;;-149.78;100.00;50256.31;4840011;29;20398;-71
2021/10/08 00:15:08;;;;;;;9.48;4.22;;;;;;;-149.78;100.00;50254.34;4836145;29;20054;-71
2021/10/08 00:17:33;;;;;;;8.45;3.47;;;;;;;-149.78;100.00;50270.00;4844239;29;20042;-71
2021/10/08 00:19:59;;;;;;;6.32;3.45;;;;;;;-149.78;100.00;50232.84;4836704;29;20046;-71
2021/10/08 00:22:25;;;;;;;7.50;3.30;;;;;;;-149.78;100.00;50228.94;4838621;29;20042;-71
2021/10/08 00:24:50;;;;;;;7.30;3.67;;;;;;;-149.78;100.00;50242.63;4840633;29;20077;-71
2021/10/08 00:27:16;;;;;;;7.93;3.90;;;;;;;-149.78;100.00;50236.75;4841292;29;20034;-71
2021/10/08 00:29:41;;;;;;;9.00;3.65;;;;;;;-149.78;100.00;50248.50;4823958;29;20043;-71
2021/10/08 00:32:08;;;;;;;8.68;3.47;;;;;;;-149.78;100.00;50275.88;4837519;29;20038;-71
2021/10/08 00:34:33;;;;;;;10.15;3.80;;;;;;;-149.78;100.00;50230.88;4822763;29;20097;-71
2021/10/08 00:36:59;;;;;;;10.43;3.80;;;;;;;-149.78;100.00;50225.03;4836892;29;20034;-71
2021/10/08 00:39:26;;;;;;;10.75;4.00;;;;;;;-149.78;100.00;50242.63;4840349;29;20101;-71
2021/10/08 00:41:53;;;;;;;11.23;4.25;;;;;;;-149.78;100.00;50264.13;4841689;29;20053;-71
2021/10/08 00:44:18;;;;;;;9.52;3.78;;;;;;;-149.78;100.00;50246.53;4839205;29;20033;-71
2021/10/08 00:46:44;;;;;;;10.20;4.57;;;;;;;-149.78;100.00;50244.59;4840908;29;20424;-71
2021/10/08 00:49:11;;;;;;;10.65;4.10;;;;;;;-149.78;100.00;50275.88;4841050;29;20054;-71
2021/10/08 00:51:37;;;;;;;10.40;4.65;;;;;;;-149.78;100.00;50236.75;4836747;29;20034;-71
2021/10/08 00:54:02;;;;;;;9.32;4.47;;;;;;;-149.78;100.00;50264.13;4840126;29;20034;-71
2021/10/08 00:56:30;;;;;;;10.57;4.15;;;;;;;-149.78;100.00;50228.94;4840690;29;20069;-71
2021/10/08 00:58:55;;;;;;;10.05;4.10;;;;;;;-149.78;100.00;50252.41;4840360;29;20086;-69
2021/10/08 01:01:22;;;;;;;11.32;4.60;;;;;;;-149.78;100.00;50248.50;4841370;29;20046;-69
2021/10/08 01:03:47;;;;;;;7.88;4.28;;;;;;;-149.78;100.00;50279.78;4837454;29;20479;-69
2021/10/08 01:06:13;;;;;;;12.45;4.80;;;;;;;-149.78;100.00;50248.50;4840603;29;20387;-69
2021/10/08 01:08:40;;;;;;;9.68;4.82;;;;;;;-149.78;100.00;50268.03;4841079;29;20402;-68
2021/10/08 01:11:05;;;;;;;12.60;5.18;;;;;;;-149.78;100.00;50254.34;4840332;29;20439;-68
2021/10/08 01:13:31;;;;;;;11.05;4.05;;;;;;;-149.78;100.00;50299.34;4839948;29;20065;-68
2021/10/08 01:15:57;;;;;;;14.07;5.47;;;;;;;-149.78;100.00;50260.22;4838551;29;20050;-68
2021/10/08 01:18:27;;;;;;;9.18;4.85;;;;;;;-149.78;100.00;50225.03;4838262;29;20102;-68
2021/10/08 01:20:52;;;;;;;7.40;4.10;;;;;;;-149.78;100.00;50217.19;4839567;29;20600;-68
2021/10/08 01:23:18;;;;;;;12.55;4.75;;;;;;;-149.78;100.00;50217.19;4840910;29;20034;-68
2021/10/08 01:25:44;;;;;;;11.73;4.18;;;;;;;-149.78;100.00;50236.75;4840933;29;20074;-68
2021/10/08 01:28:10;;;;;;;8.48;4.05;;;;;;;-149.78;100.00;50236.75;4845438;29;20045;-68
2021/10/08 01:30:36;;;;;;;9.50;4.65;;;;;;;-149.78;100.00;50232.84;4828248;29;20421;-68
2021/10/08 01:33:04;;;;;;;10.68;4.30;;;;;;;-149.78;100.00;50248.50;4844412;29;20090;-68
2021/10/08 01:35:30;;;;;;;8.07;4.30;;;;;;;-149.78;100.00;50215.25;4830430;29;20436;-69
2021/10/08 01:37:55;;;;;;;8.93;4.50;;;;;;;-149.78;100.00;50232.84;4840023;29;20050;-68
2021/10/08 01:40:21;;;;;;;6.05;3.35;;;;;;;-149.78;100.00;50252.41;4828250;29;20086;-68
2021/10/08 01:42:47;;;;;;;10.57;4.38;;;;;;;-149.78;100.00;50271.97;4843605;29;20416;-69
2021/10/08 01:45:14;;;;;;;8.63;4.30;;;;;;;-149.78;100.00;50221.13;4844520;29;20038;-68
2021/10/08 01:47:40;;;;;;;9.52;4.10;;;;;;;-149.78;100.00;50256.31;4831482;29;20042;-68
2021/10/08 01:50:07;;;;;;;11.43;4.32;;;;;;;-149.78;100.00;50283.69;4841618;29;20061;-68
2021/10/08 01:52:33;;;;;;;12.57;4.72;;;;;;;-149.78;100.00;50260.22;4844565;29;20038;-69
2021/10/08 01:54:58;;;;;;;6.88;4.28;;;;;;;-149.78;100.00;50248.50;4844161;29;20482;-70
2021/10/08 01:57:27;;;;;;;8.38;4.07;;;;;;;-149.78;100.00;50232.84;4840580;29;20041;-70
2021/10/08 01:59:53;;;;;;;14.60;5.72;;;;;;;-149.78;100.00;50256.31;4844612;29;20033;-69
2021/10/08 02:02:19;;;;;;;12.25;5.80;;;;;;;-149.78;100.00;50244.59;4837319;29;20034;-69
2021/10/08 02:04:46;;;;;;;9.43;4.45;;;;;;;-149.78;100.00;50279.78;4843543;29;20069;-69
2021/10/08 02:07:12;;;;;;;8.18;4.47;;;;;;;-149.78;100.00;50248.50;4843254;29;20033;-69
2021/10/08 02:09:37;;;;;;;9.90;4.68;;;;;;;-149.78;100.00;50268.03;4843087;29;20037;-69
2021/10/08 02:12:03;;;;;;;13.25;4.55;;;;;;;-149.78;100.00;50291.50;4826542;29;20482;-69
2021/10/08 02:14:29;;;;;;;8.52;4.40;;;;;;;-149.78;100.00;50264.13;4843478;29;20046;-69
2021/10/08 02:16:55;;;;;;;11.18;4.80;;;;;;;-149.78;100.00;50260.22;4841806;29;20046;-69
2021/10/08 02:19:20;;;;;;;11.38;4.85;;;;;;;-149.78;100.00;50225.03;4826616;29;20049;-69
2021/10/08 02:21:47;;;;;;;8.75;4.93;;;;;;;-149.78;100.00;50283.69;4821355;29;20495;-69
2021/10/08 02:24:13;;;;;;;9.65;5.25;;;;;;;-149.78;100.00;50264.13;4840110;29;20387;-69
2021/10/08 02:26:39;;;;;;;16.63;6.15;;;;;;;-149.78;100.00;50271.97;4839508;29;20044;-69
2021/10/08 02:29:05;;;;;;;11.32;5.35;;;;;;;-149.78;100.00;50293.47;4837131;29;20488;-69
2021/10/08 02:31:31;;;;;;;9.93;5.28;;;;;;;-149.78;100.00;50252.41;4840068;29;20072;-69
2021/10/08 02:33:57;;;;;;;14.27;5.82;;;;;;;-149.78;100.00;50271.97;4833930;29;20062;-69
2021/10/08 02:36:22;;;;;;;13.38;5.90;;;;;;;-149.78;100.00;50268.03;4835989;29;20026;-69
2021/10/08 02:38:48;;;;;;;11.35;5.50;;;;;;;-149.78;100.00;50275.88;4833515;29;20058;-69
2021/10/08 02:41:14;;;;;;;10.93;6.32;;;;;;;-149.78;100.00;50268.03;4841178;29;20073;-69
2021/10/08 02:43:40;;;;;;;12.20;6.50;;;;;;;-149.78;100.00;50248.50;4843637;29;20046;-69
2021/10/08 02:46:06;;;;;;;14.73;6.32;;;;;;;-149.78;100.00;50260.22;4826523;29;20034;-69
2021/10/08 02:48:34;;;;;;;13.95;6.40;;;;;;;-149.78;100.00;50264.13;4830862;29;20402;-68
2021/10/08 02:51:00;;;;;;;14.77;6.93;;;;;;;-149.78;100.00;50260.22;4854403;29;20455;-69
2021/10/08 02:53:26;;;;;;;14.48;7.45;;;;;;;-149.78;100.00;50268.03;4844685;29;20049;-69
2021/10/08 02:55:52;;;;;;;18.48;8.77;;;;;;;-149.78;100.00;50293.47;4843990;29;20046;-69
2021/10/08 02:58:17;;;;;;;13.70;7.93;;;;;;;-149.78;100.00;50281.75;4853457;29;20077;-69
2021/10/08 03:00:43;;;;;;;14.88;7.78;;;;;;;-149.78;100.00;50271.97;4860838;29;20041;-69
2021/10/08 03:03:09;;;;;;;17.88;8.23;;;;;;;-149.78;100.00;50279.78;4856485;29;20041;-69
2021/10/08 03:05:34;;;;;;;20.23;8.85;;;;;;;-149.78;100.00;50279.78;4824984;29;20042;-68
2021/10/08 03:08:00;;;;;;;17.48;10.00;;;;;;;-149.78;100.00;50268.03;4826776;29;20069;-69
2021/10/08 03:10:26;;;;;;;18.02;9.13;;;;;;;-149.78;100.00;50250.44;4814239;29;20097;-69
2021/10/08 03:12:52;;;;;;;20.75;10.02;;;;;;;-149.78;100.00;50287.59;4842291;29;20034;-69
2021/10/08 03:15:19;;;;;;;20.75;10.00;;;;;;;-149.78;100.00;50281.75;4832697;29;21144;-69
2021/10/08 03:17:45;;;;;;;18.92;9.93;;;;;;;-149.78;100.00;50277.81;4861900;29;20542;-68
2021/10/08 03:20:12;;;;;;;17.58;9.73;;;;;;;-149.78;100.00;50271.97;4848361;29;20049;-69
2021/10/08 03:22:38;;;;;;;18.83;9.40;;;;;;;-149.78;100.00;50248.50;4849916;29;20067;-68
2021/10/08 03:25:09;;;;;;;20.15;10.18;;;;;;;-149.78;100.00;50301.28;4838056;29;20077;-69
2021/10/08 03:27:35;;;;;;;20.90;9.05;;;;;;;-149.78;100.00;50291.50;4846300;29;20065;-69
2021/10/08 03:30:06;;;;;;;20.83;9.20;;;;;;;-149.78;100.00;50301.28;4841983;29;20128;-69
2021/10/08 03:32:31;;;;;;;18.40;9.45;;;;;;;-149.78;100.00;50271.97;4861604;29;20037;-68
2021/10/08 03:34:57;;;;;;;19.00;9.75;;;;;;;-149.78;100.00;50283.69;4858782;29;20160;-69
2021/10/08 03:37:29;;;;;;;20.45;9.05;;;;;;;-149.78;100.00;50271.97;4849792;29;20041;-69
2021/10/08 03:39:55;;;;;;;15.52;8.95;;;;;;;-149.78;100.00;50305.22;4842114;29;20066;-69
2021/10/08 03:42:22;;;;;;;20.13;8.32;;;;;;;-149.78;100.00;50311.06;4826576;29;20042;-69
2021/10/08 03:44:55;;;;;;;17.95;8.75;;;;;;;-149.78;100.00;50268.03;4842720;29;20090;-69
2021/10/08 03:47:26;;;;;;;16.52;9.55;;;;;;;-149.78;100.00;50275.88;4855292;29;20109;-69
2021/10/08 03:49:52;;;;;;;19.83;9.25;;;;;;;-149.78;100.00;50264.13;4853931;29;20119;-69
2021/10/08 03:52:18;;;;;;;21.77;9.40;;;;;;;-149.78;100.00;50268.03;4860496;29;20514;-69
2021/10/08 03:54:44;;;;;;;19.17;10.75;;;;;;;-149.78;100.00;50264.13;4844188;29;20057;-69
2021/10/08 03:57:09;;;;;;;21.75;10.15;;;;;;;-149.78;100.00;50291.50;4799694;29;20046;-69
2021/10/08 03:59:35;;;;;;;17.13;9.75;;;;;;;-149.78;100.00;50254.34;4821311;29;20050;-69
2021/10/08 04:02:01;;;;;;;18.85;10.13;;;;;;;-149.78;100.00;50268.03;4832459;29;20060;-69
2021/10/08 04:04:28;;;;;;;19.45;9.23;;;;;;;-149.78;100.00;50266.09;4833388;29;20042;-69
2021/10/08 04:06:53;;;;;;;17.27;9.57;;;;;;;-149.78;100.00;50283.69;4834501;29;20118;-69
2021/10/08 04:09:19;;;;;;;19.17;9.70;;;;;;;-149.78;100.00;50287.59;4835973;29;20212;-69
2021/10/08 04:11:45;;;;;;;19.00;9.10;;;;;;;-149.78;100.00;50283.69;4834927;29;20079;-69
2021/10/08 04:14:10;;;;;;;22.02;9.55;;;;;;;-149.78;100.00;50260.22;4841388;29;20128;-69
2021/10/08 04:16:36;;;;;;;17.15;9.15;;;;;;;-149.78;100.00;50273.91;4840998;29;20086;-69
2021/10/08 04:19:06;;;;;;;21.55;10.25;;;;;;;-149.78;100.00;50273.91;4839443;29;20050;-69
2021/10/08 04:21:33;;;;;;;17.58;9.50;;;;;;;-149.78;100.00;50236.75;4831390;29;20368;-69
2021/10/08 04:23:58;;;;;;;19.15;9.65;;;;;;;-149.78;100.00;50273.91;4839065;29;20436;-69
2021/10/08 04:26:24;;;;;;;22.08;9.40;;;;;;;-149.78;100.00;50283.69;4839602;29;20072;-69
2021/10/08 04:28:50;;;;;;;18.40;9.25;;;;;;;-149.78;100.00;50268.03;4835290;29;20125;-69
2021/10/08 04:31:16;;;;;;;16.73;8.77;;;;;;;-149.78;100.00;50283.69;4840432;29;20044;-69
2021/10/08 04:33:41;;;;;;;14.38;8.40;;;;;;;-149.78;100.00;50285.66;4825317;29;20065;-69
2021/10/08 04:36:09;;;;;;;18.25;8.15;;;;;;;-149.78;100.00;50252.41;4822592;29;20094;-69
2021/10/08 04:38:34;;;;;;;18.00;8.57;;;;;;;-149.78;100.00;50279.78;4840198;29;20050;-69
2021/10/08 04:41:01;;;;;;;17.45;8.13;;;;;;;-149.78;100.00;50295.44;4840538;29;20129;-69
2021/10/08 04:43:27;;;;;;;18.08;8.00;;;;;;;-149.78;100.00;50260.22;4832506;29;20467;-69
2021/10/08 04:45:52;;;;;;;16.15;7.35;;;;;;;-149.78;100.00;50268.03;4832089;29;20027;-69
2021/10/08 04:48:19;;;;;;;16.25;7.45;;;;;;;-149.78;100.00;50256.31;4839543;29;20049;-69
2021/10/08 04:50:44;;;;;;;13.95;7.20;;;;;;;-149.78;100.00;50271.97;4841046;29;20062;-69
2021/10/08 04:53:14;;;;;;;14.15;7.00;;;;;;;-149.78;100.00;50271.97;4839986;29;20379;-69
2021/10/08 04:55:42;;;;;;;13.30;6.90;;;;;;;-149.78;100.00;50287.59;4840027;29;20076;-69
2021/10/08 04:58:07;;;;;;;12.93;6.50;;;;;;;-149.78;100.00;50275.88;4838503;29;20073;-69
2021/10/08 05:00:34;;;;;;;10.60;6.03;;;;;;;-149.78;100.00;50264.13;4812224;29;20046;-68
2021/10/08 05:02:59;;;;;;;11.40;6.40;;;;;;;-149.78;100.00;50295.44;4814152;29;20042;-69
2021/10/08 05:05:25;;;;;;;10.13;5.88;;;;;;;-149.78;100.00;50283.69;4832161;29;20371;-69
2021/10/08 05:07:50;;;;;;;15.20;6.03;;;;;;;-149.78;100.00;50256.31;4829446;29;20506;-69
2021/10/08 05:10:16;;;;;;;8.82;5.72;;;;;;;-149.78;100.00;50271.97;4829906;29;20038;-69
2021/10/08 05:12:42;;;;;;;13.38;5.88;;;;;;;-149.78;100.00;50291.50;4830201;29;20421;-69
2021/10/08 05:15:08;;;;;;;13.70;6.05;;;;;;;-149.78;100.00;50256.31;4827675;29;20090;-69
2021/10/08 05:17:33;;;;;;;11.82;6.55;;;;;;;-149.78;100.00;50303.25;4834876;29;20098;-69
2021/10/08 05:19:59;;;;;;;13.20;6.53;;;;;;;-149.78;100.00;50275.88;4835902;29;20360;-69
2021/10/08 05:22:24;;;;;;;16.38;7.32;;;;;;;-149.78;100.00;50293.47;4833571;29;20506;-69
2021/10/08 05:24:50;;;;;;;14.15;7.25;;;;;;;-149.78;100.00;50307.16;4836504;29;20110;-69
2021/10/08 05:27:15;;;;;;;15.27;7.72;;;;;;;-149.78;100.00;50314.97;4833040;29;20053;-69
2021/10/08 05:29:41;;;;;;;14.73;7.68;;;;;;;-149.78;100.00;50244.59;4815020;29;20041;-69
2021/10/08 05:32:07;;;;;;;14.02;6.65;;;;;;;-149.78;100.00;50322.81;4839120;29;20121;-69
2021/10/08 05:34:33;;;;;;;16.02;7.22;;;;;;;-149.78;100.00;50268.03;4828853;29;20027;-69
2021/10/08 05:36:58;;;;;;;15.55;7.50;;;;;;;-149.78;100.00;50281.75;4836619;29;20038;-69
2021/10/08 05:39:24;;;;;;;16.67;7.53;;;;;;;-149.78;100.00;50291.50;4842688;29;20058;-69
2021/10/08 05:41:50;;;;;;;20.20;9.20;;;;;;;-149.78;100.00;50287.59;4842790;29;20049;-70
2021/10/08 05:44:16;;;;;;;18.20;8.27;;;;;;;-149.78;100.00;50268.03;4843009;29;20072;-69
2021/10/08 05:46:41;;;;;;;15.55;8.25;;;;;;;-149.78;100.00;50271.97;4841360;29;20128;-69
2021/10/08 05:49:07;;;;;;;16.20;7.55;;;;;;;-149.78;100.00;50314.97;4824844;29;20117;-69
2021/10/08 05:51:32;;;;;;;18.42;7.80;;;;;;;-149.78;100.00;50314.97;4828873;29;20125;-69
2021/10/08 05:53:58;;;;;;;15.55;8.25;;;;;;;-149.78;100.00;50303.25;4834399;29;20042;-69
2021/10/08 05:56:23;;;;;;;16.35;8.07;;;;;;;-149.78;100.00;50268.03;4824701;29;20065;-69
2021/10/08 05:58:49;;;;;;;18.88;8.73;;;;;;;-149.78;100.00;50295.44;4834260;29;20049;-69
2021/10/08 06:01:15;;;;;;;19.10;9.88;;;;;;;-149.78;100.00;50293.47;4842126;29;20038;-69
2021/10/08 06:03:40;;;;;;;17.90;8.98;;;;;;;-149.78;100.00;50328.69;4839812;29;20042;-69
2021/10/08 06:06:06;;;;;;;15.75;7.80;;;;;;;-149.78;100.00;50291.50;4829262;29;20034;-69
2021/10/08 06:08:32;;;;;;;16.77;7.95;;;;;;;-149.78;100.00;50299.34;4828401;29;20046;-69
2021/10/08 06:10:57;;;;;;;15.43;7.68;;;;;;;-149.78;100.00;50328.69;4827555;29;20049;-69
2021/10/08 06:13:23;;;;;;;18.02;8.80;;;;;;;-149.78;100.00;50291.50;4836729;29;20034;-69
2021/10/08 06:15:50;;;;;;;16.25;8.60;;;;;;;-149.78;100.00;50289.56;4838334;29;20036;-69
2021/10/08 06:18:15;;;;;;;17.25;7.85;;;;;;;-149.78;100.00;50270.00;4842198;29;20048;-70
2021/10/08 06:20:41;;;;;;;14.32;7.68;;;;;;;-149.78;100.00;50299.34;4842483;29;20038;-68
2021/10/08 06:23:08;;;;;;;18.55;7.82;;;;;;;-149.78;100.00;50311.06;4842762;29;20034;-68
2021/10/08 06:25:34;;;;;;;15.20;7.03;;;;;;;-149.78;100.00;50299.34;4842192;29;20048;-68
2021/10/08 06:27:59;;;;;;;15.63;7.15;;;;;;;-149.78;100.00;50295.44;4836440;29;20383;-68
2021/10/08 06:30:25;;;;;;;15.40;8.00;;;;;;;-149.78;100.00;50338.44;4833968;29;20045;-69
2021/10/08 06:32:51;;;;;;;17.27;8.20;;;;;;;-149.78;100.00;50320.84;4836992;29;20129;-66
2021/10/08 06:35:16;;;;;;;17.73;8.70;;;;;;;-149.78;100.00;50291.50;4840095;29;20041;-67
2021/10/08 06:37:43;;;;;;;14.90;6.75;;;;;;;-149.78;100.00;50297.38;4837841;29;20057;-67
2021/10/08 06:40:10;;;;;;;17.10;7.22;;;;;;;-149.78;100.00;50322.81;4823263;29;20169;-67
2021/10/08 06:42:36;;;;;;;16.67;7.85;;;;;;;-149.78;100.00;50311.06;4835648;29;20037;-67
2021/10/08 06:45:03;;;;;;;19.17;8.27;;;;;;;-149.78;100.00;50303.25;4836569;29;20145;-67
2021/10/08 06:47:29;;;;;;;18.35;8.55;;;;;;;-149.78;100.00;50311.06;4832518;29;20030;-67
2021/10/08 06:49:54;;;;;;;17.98;7.90;;;;;;;-149.78;100.00;50334.53;4840631;29;20125;-67
2021/10/08 06:52:22;;;;;;;16.88;7.53;;;;;;;-149.78;100.00;50303.25;4827291;29;20040;-69
2021/10/08 06:54:47;;;;;;;18.33;8.05;;;;;;;-149.78;100.00;50283.69;4840267;29;20098;-66
2021/10/08 06:57:13;;;;;;;16.00;7.25;;;;;;;-149.78;100.00;50281.75;4831811;29;20424;-67
2021/10/08 06:59:38;;;;;;;16.42;7.28;;;;;;;-149.78;100.00;50293.47;4827197;29;20052;-67
2021/10/08 07:02:04;;;;;;;16.48;7.43;;;;;;;-149.78;100.00;50299.34;4835903;29;20125;-67
2021/10/08 07:04:30;;;;;;;15.70;7.40;;;;;;;-149.78;100.00;50268.03;4838335;29;20141;-67
2021/10/08 07:06:56;;;;;;;13.85;6.75;;;;;;;-149.78;100.00;50305.22;4839118;29;20030;-67
2021/10/08 07:09:21;;;;;;;12.23;6.82;;;;;;;-149.78;100.00;50309.13;4842072;29;20038;-67
2021/10/08 07:11:47;;;;;;;13.77;6.93;;;;;;;-149.78;100.00;50275.88;4824502;29;20110;-67
2021/10/08 07:14:12;;;;;;;16.00;6.82;;;;;;;-149.78;100.00;50271.97;4839345;29;20087;-67
2021/10/08 07:16:38;;;;;;;12.95;6.53;;;;;;;-149.78;100.00;50277.81;4839411;29;20030;-67
2021/10/08 07:19:22;;;;;;;11.00;6.05;;;;;;;-149.78;100.00;50279.78;4834335;29;20098;-67
2021/10/08 07:21:48;;;;;;;12.38;6.78;;;;;;;-149.78;100.00;50295.44;4828384;29;20518;-67
2021/10/08 07:24:14;;;;;;;11.27;6.40;;;;;;;-149.78;100.00;50268.03;4835499;29;20475;-67
2021/10/08 07:26:41;;;;;;;9.80;5.90;;;;;;;-149.78;100.00;50299.34;4834157;29;20046;-67
2021/10/08 07:29:07;;;;;;;12.85;5.93;;;;;;;-149.78;100.00;50309.13;4837551;29;20398;-66
2021/10/08 07:31:33;;;;;;;13.60;6.80;;;;;;;-149.78;100.00;50244.59;4838249;29;20034;-67
2021/10/08 07:33:59;;;;;;;11.57;6.28;;;;;;;-149.78;100.00;50270.00;4839640;29;20042;-68
2021/10/08 07:36:24;;;;;;;11.40;5.80;;;;;;;-149.78;100.00;50254.34;4840436;29;20061;-68
2021/10/08 07:38:50;;;;;;;10.52;5.80;;;;;;;-149.78;100.00;50252.41;4821516;29;20058;-68
2021/10/08 07:41:16;;;;;;;10.65;5.88;;;;;;;-149.78;100.00;50291.50;4826288;29;20125;-68
2021/10/08 07:43:41;;;;;;;11.20;5.75;;;;;;;-149.78;100.00;50252.41;4823950;29;20066;-68
2021/10/08 07:46:09;;;;;;;10.68;5.35;;;;;;;-149.78;100.00;50271.97;4822476;29;20061;-68
2021/10/08 07:48:34;;;;;;;10.63;5.63;;;;;;;-149.78;100.00;50240.66;4820268;29;20039;-68
2021/10/08 07:51:00;;;;;;;11.95;5.40;;;;;;;-149.78;100.00;50240.66;4819496;29;20069;-68
2021/10/08 07:53:28;;;;;;;8.40;4.95;;;;;;;-149.78;100.00;50236.75;4811547;29;20046;-68
2021/10/08 07:55:54;;;;;;;9.50;5.80;;;;;;;-149.78;100.00;50240.66;4823577;29;20467;-68
2021/10/08 07:58:26;;;;;;;8.57;5.15;;;;;;;-149.78;100.00;50197.66;4824979;29;20058;-68
2021/10/08 08:00:55;;;;;;;8.32;4.88;;;;;;;-149.78;100.00;50252.41;4817943;29;20495;-68
2021/10/08 08:03:21;;;;;;;11.02;4.70;;;;;;;-149.78;100.00;50250.44;4819928;29;20152;-68
2021/10/08 08:05:47;;;;;;;9.02;4.78;;;;;;;-149.78;100.00;50252.41;4815251;29;20050;-68
2021/10/08 08:08:13;;;;;;;10.52;4.88;;;;;;;-149.78;100.00;50221.13;4821770;29;20520;-68
2021/10/08 08:10:39;;;;;;;8.43;4.78;;;;;;;-149.78;100.00;50221.13;4811864;29;20043;-68
2021/10/08 08:13:05;;;;;;;10.82;4.90;;;;;;;-149.78;100.00;50213.28;4829378;29;20045;-68
2021/10/08 08:15:30;;;;;;;9.75;4.53;;;;;;;-149.78;100.00;50221.13;4813940;29;20038;-68
2021/10/08 08:17:56;;;;;;;8.57;4.85;;;;;;;-149.78;100.00;50201.56;4825969;29;20030;-68
2021/10/08 08:20:23;;;;;;;10.43;5.15;;;;;;;-149.78;100.00;50207.44;4819331;29;20391;-68
2021/10/08 08:22:48;;;;;;;9.43;4.85;;;;;;;-149.78;100.00;50256.31;4829387;29;20141;-68
2021/10/08 08:25:14;;;;;;;9.27;4.50;;;;;;;-149.78;100.00;50213.28;4829705;29;20491;-68
2021/10/08 08:27:40;;;;;;;8.77;4.78;;;;;;;-149.78;100.00;50230.88;4820971;29;20039;-68
2021/10/08 08:30:06;;;;;;;9.18;4.97;;;;;;;-149.78;100.00;50182.00;4821328;29;20117;-68
2021/10/08 08:32:33;;;;;;;8.75;4.72;;;;;;;-149.78;100.00;50213.28;4818981;29;20505;-68
2021/10/08 08:34:59;;;;;;;6.70;4.00;;;;;;;-149.78;100.00;50209.38;4829651;29;20042;-68
2021/10/08 08:37:26;;;;;;;8.88;4.38;;;;;;;-149.78;100.00;50174.19;4827734;29;20042;-68
2021/10/08 08:39:51;;;;;;;9.65;4.18;;;;;;;-149.78;100.00;50221.13;4837494;29;20053;-68
2021/10/08 08:42:19;;;;;;;10.82;4.95;;;;;;;-149.78;100.00;50197.66;4844330;29;20122;-68
2021/10/08 08:44:44;;;;;;;6.40;4.07;;;;;;;-149.78;100.00;50211.34;4844212;29;20044;-68
2021/10/08 08:47:21;;;;;;;8.38;4.63;;;;;;;-149.78;100.00;50215.25;4834124;29;20042;-68
2021/10/08 08:49:48;;;;;;;9.23;4.70;;;;;;;-149.78;100.00;50205.47;4841124;29;20038;-68
2021/10/08 08:52:14;;;;;;;7.63;4.47;;;;;;;-149.78;100.00;50195.69;4829609;29;20048;-68
2021/10/08 08:54:41;;;;;;;7.97;4.40;;;;;;;-149.78;100.00;50170.25;4844384;29;20038;-68
2021/10/08 08:57:20;;;;;;;8.27;5.18;;;;;;;-149.78;100.00;50199.59;4834585;29;20037;-68
2021/10/08 09:00:16;;;;;;;13.90;5.55;;;;;;;-149.78;100.00;50211.34;4843118;29;20038;-68
2021/10/08 09:02:43;;;;;;;9.82;5.30;;;;;;;-149.78;100.00;50178.09;4834748;29;20073;-68
2021/10/08 09:05:23;;;;;;;7.97;5.65;;;;;;;-149.78;100.00;50209.38;4833847;29;20065;-68
2021/10/08 09:07:48;;;;;;;10.38;6.68;;;;;;;-149.78;100.00;50197.66;4845103;29;20093;-68
2021/10/08 09:10:16;;;;;;;11.27;8.15;;;;;;;-149.78;100.00;50166.34;4842896;29;20446;-68
2021/10/08 09:12:43;;;;;;;12.27;7.35;;;;;;;-149.78;100.00;50217.19;4844259;29;20145;-68
2021/10/08 09:15:11;;;;;;;13.13;7.93;;;;;;;-149.78;100.00;50189.81;4842622;29;20037;-68
2021/10/08 09:17:36;;;;;;;14.27;8.43;;;;;;;-149.78;100.00;50185.91;4839135;29;20078;-68
2021/10/08 09:20:18;;;;;;;16.50;8.80;;;;;;;-149.78;100.00;50201.56;4842285;29;20436;-68
2021/10/08 09:22:49;;;;;;;13.50;8.80;;;;;;;-149.78;100.00;50172.22;4831609;29;20030;-68
2021/10/08 09:25:30;;;;;;;12.57;8.20;;;;;;;-149.78;100.00;50158.53;4843997;29;20120;-68
2021/10/08 09:28:03;;;;;;;15.98;8.95;;;;;;;-149.78;100.00;50140.94;4839294;29;20033;-69
2021/10/08 09:30:39;;;;;;;12.82;8.40;;;;;;;-149.78;100.00;50103.78;4843137;29;20136;-68
2021/10/08 09:33:06;;;;;;;12.60;7.25;;;;;;;-149.78;100.00;50103.78;4841172;29;20030;-68
2021/10/08 09:35:32;;;;;;;11.27;7.00;;;;;;;-149.78;100.00;50135.06;4830607;29;20099;-68
2021/10/08 09:38:06;;;;;;;9.18;6.90;;;;;;;-149.78;100.00;50060.75;4839828;29;20042;-69
2021/10/08 09:40:40;;;;;;;9.75;6.40;;;;;;;-149.78;100.00;50086.19;4841291;29;20462;-69
2021/10/08 09:43:09;;;;;;;7.57;5.78;;;;;;;-149.78;99.17;50056.84;4828567;29;20038;-68
2021/10/08 09:45:34;;;;;;;6.57;5.38;;;;;;;-149.78;90.10;50041.19;4830917;29;20038;-69
2021/10/08 09:48:00;;;;;;;7.00;4.95;;;;;;;-149.78;82.90;50049.03;4834367;29;20090;-69
2021/10/08 09:50:26;;;;;;;5.95;3.92;;;;;;;-149.78;72.35;50043.16;4839890;29;20044;-69
2021/10/08 09:53:11;;;;;;;6.95;4.65;;;;;;;-149.78;68.44;50002.09;4841233;29;20041;-69
2021/10/08 09:55:39;;;;;;;6.40;4.63;;;;;;;-149.78;65.90;50021.63;4834041;29;20686;-69
2021/10/08 09:58:05;;;;;;;5.13;3.80;;;;;;;-149.78;62.64;49992.31;4838227;29;20133;-69
2021/10/08 10:01:01;;;;;;;6.82;4.95;;;;;;;-149.78;61.54;50037.28;4839233;29;20042;-69
2021/10/08 10:03:29;;;;;;;8.55;5.43;;;;;;;-149.78;61.48;50049.03;4836500;29;20523;-69
2021/10/08 10:06:01;;;;;;;8.05;5.57;;;;;;;-149.78;63.18;50041.19;4841412;29;20053;-69
2021/10/08 10:08:28;;;;;;;6.82;5.32;;;;;;;-149.78;63.68;50033.38;4838979;29;20255;-69
2021/10/08 10:10:55;;;;;;;9.68;5.60;;;;;;;-149.78;62.69;50004.03;4841575;29;20600;-69
2021/10/08 10:13:21;;;;;;;9.43;6.50;;;;;;;-149.78;65.49;50037.28;4842102;29;20037;-69
2021/10/08 10:15:48;;;;;;;9.23;6.38;;;;;;;-149.78;67.68;50033.38;4840179;29;20123;-69
2021/10/08 10:18:17;;;;;;;7.60;5.30;;;;;;;-149.78;64.96;50052.94;4831119;29;20038;-71
2021/10/08 10:20:48;;;;;;;8.20;5.78;;;;;;;-149.78;65.29;50039.25;4840651;29;20049;-71
2021/10/08 10:23:16;;;;;;;8.38;5.72;;;;;;;-149.78;65.68;50056.84;4835030;29;20030;-70
2021/10/08 10:25:44;;;;;;;10.07;6.30;;;;;;;-149.78;67.47;50029.47;4826377;29;20033;-71
2021/10/08 10:28:12;;;;;;;10.75;6.43;;;;;;;-149.78;67.89;50064.66;4819899;29;20046;-71
2021/10/08 10:30:40;;;;;;;9.45;5.93;;;;;;;-149.78;69.94;50037.28;4838491;29;20493;-71
2021/10/08 10:33:07;;;;;;;7.63;5.78;;;;;;;-149.78;69.10;50072.50;4827442;29;20382;-70
2021/10/08 10:35:50;;;;;;;11.73;5.93;;;;;;;-149.78;69.19;50045.09;4837169;29;20031;-70
2021/10/08 10:38:39;;;;;;;10.80;6.10;;;;;;;-149.78;68.25;50045.09;4840058;29;20042;-71
2021/10/08 10:41:07;;;;;;;9.77;6.55;;;;;;;-149.78;68.44;50072.50;4840825;29;20045;-71
2021/10/08 10:43:39;;;;;;;10.05;6.10;;;;;;;-149.78;65.76;50060.75;4842579;29;20086;-71
2021/10/08 10:49:56;;;;;;;;;;;;;;;-149.78;63.86;50047.06;4837498;29;20517;-71
2021/10/08 10:52:01;;;;;;;10.10;6.25;;;;;;;-149.78;64.57;50045.09;4828222;29;20389;-71
2021/10/08 10:54:51;;;;;;;13.02;6.65;;;;;;;-149.78;64.01;50011.88;4839607;29;20498;-71
2021/10/08 10:57:18;;;;;;;12.32;6.32;;;;;;;-149.78;64.53;50045.09;4829581;29;20042;-71
2021/10/08 10:59:44;;;;;;;10.05;6.38;;;;;;;-149.78;65.67;50017.72;4826880;29;20414;-71
2021/10/08 11:02:17;;;;;;;9.93;6.72;;;;;;;-149.78;68.67;50088.13;4840816;29;20042;-71
2021/10/08 11:04:42;;;;;;;;;;;;;;;-149.78;68.11;50086.19;4842181;29;20046;-71
2021/10/08 11:07:10;;;;;;;10.23;6.20;;;;;;;-149.78;70.46;50049.03;4830334;29;19923;-71